createdAt,value
2018-04-12T00:01:33.562Z,99680.63
2018-04-12T00:04:01.411Z,99668.65
2018-04-12T00:06:29.033Z,99665.59
2018-04-12T00:08:56.771Z,99659.07
2018-04-12T00:11:24.384Z,99654.53
2018-04-12T00:13:52.025Z,99654.01
2018-04-12T00:16:19.616Z,99648.83
2018-04-12T00:18:47.320Z,99646.85
2018-04-12T00:21:14.928Z,99648.98
2018-04-12T00:23:42.586Z,99643.61
2018-04-12T00:26:10.176Z,99640.00
2018-04-12T00:28:37.863Z,99631.33
2018-04-12T00:31:05.514Z,99632.93
2018-04-12T00:33:33.175Z,99625.44
2018-04-12T00:36:00.785Z,99623.47
2018-04-12T00:38:28.450Z,99621.00
2018-04-12T00:40:56.120Z,99616.45
2018-04-12T00:43:23.720Z,99613.22
2018-04-12T00:45:51.325Z,99612.11
2018-04-12T00:48:18.929Z,99604.52
2018-04-12T00:50:46.573Z,99606.01
2018-04-12T00:53:14.169Z,99602.11
2018-04-12T00:55:41.837Z,99609.58
2018-04-12T00:58:09.473Z,99606.86
2018-04-12T01:00:37.109Z,99611.52
2018-04-12T01:03:04.713Z,99602.55
2018-04-12T01:05:32.361Z,99605.11
2018-04-12T01:08:00.112Z,99602.42
2018-04-12T01:10:27.814Z,99598.77
2018-04-12T01:12:55.429Z,99603.02
2018-04-12T01:15:23.134Z,99603.55
2018-04-12T01:17:50.720Z,99608.53
2018-04-12T01:20:18.413Z,99605.30
2018-04-12T01:22:46.041Z,99610.04
2018-04-12T01:25:13.733Z,99596.36
2018-04-12T01:27:41.494Z,99598.39
2018-04-12T01:30:09.161Z,99594.88
2018-04-12T01:32:36.837Z,99589.44
2018-04-12T01:35:04.518Z,99588.70
2018-04-12T01:37:32.260Z,99583.46
2018-04-12T01:39:59.876Z,99580.88
2018-04-12T01:42:27.589Z,99584.81
2018-04-12T01:44:55.300Z,99590.55
2018-04-12T01:47:22.962Z,99581.93
2018-04-12T01:49:50.625Z,99574.92
2018-04-12T01:52:18.424Z,99572.16
2018-04-12T01:54:46.062Z,99570.70
2018-04-12T01:57:13.781Z,99569.83
2018-04-12T01:59:41.477Z,99568.89
2018-04-12T02:02:09.167Z,99565.75
2018-04-12T02:04:36.849Z,99565.17
2018-04-12T02:07:04.466Z,99558.66
2018-04-12T02:09:32.112Z,99553.91
2018-04-12T02:11:59.838Z,99552.52
2018-04-12T02:14:27.549Z,99553.19
2018-04-12T02:16:55.158Z,99539.11
2018-04-12T02:19:22.854Z,99540.19
2018-04-12T02:21:50.514Z,99536.66
2018-04-12T02:24:18.233Z,99530.16
2018-04-12T02:26:45.862Z,99535.50
2018-04-12T02:29:13.595Z,99527.42
2018-04-12T02:31:41.443Z,99525.82
2018-04-12T02:34:09.148Z,99522.19
2018-04-12T02:36:36.885Z,99521.95
2018-04-12T02:39:04.498Z,99521.31
2018-04-12T02:41:32.161Z,99516.74
2018-04-12T02:43:59.899Z,99514.02
2018-04-12T02:46:27.548Z,99514.39
2018-04-12T02:48:55.239Z,99508.95
2018-04-12T02:51:22.966Z,99504.50
2018-04-12T02:53:50.647Z,99495.20
2018-04-12T02:56:18.358Z,99501.77
2018-04-12T02:58:46.150Z,99501.27
2018-04-12T03:01:13.899Z,99492.81
2018-04-12T03:03:41.560Z,99486.50
2018-04-12T03:06:09.268Z,99487.34
2018-04-12T03:08:37.009Z,99481.47
2018-04-12T03:11:04.767Z,99476.00
2018-04-12T03:13:32.553Z,99469.91
2018-04-12T03:16:00.419Z,99467.45
2018-04-12T03:18:28.172Z,99463.39
2018-04-12T03:20:55.925Z,99465.11
2018-04-12T03:23:23.604Z,99465.39
2018-04-12T03:25:51.342Z,99464.17
2018-04-12T03:28:18.999Z,99464.70
2018-04-12T03:30:46.764Z,99467.69
2018-04-12T03:33:14.563Z,99457.89
2018-04-12T03:35:42.434Z,99455.02
2018-04-12T03:38:10.215Z,99448.09
2018-04-12T03:40:38.048Z,99451.41
2018-04-12T03:43:05.951Z,99450.47
2018-04-12T03:45:33.600Z,99449.34
2018-04-12T03:48:01.322Z,99446.92
2018-04-12T03:50:29.165Z,99444.41
2018-04-12T03:52:56.910Z,99440.92
2018-04-12T03:55:24.782Z,99445.09
2018-04-12T03:57:52.445Z,99444.75
2018-04-12T04:00:20.168Z,99442.39
2018-04-12T04:02:47.887Z,99445.02
2018-04-12T04:05:15.608Z,99442.92
2018-04-12T04:07:43.312Z,99438.10
2018-04-12T04:10:10.985Z,99435.08
2018-04-12T04:12:38.896Z,99434.38
2018-04-12T04:15:27.061Z,99433.36
2018-04-12T04:18:06.524Z,99439.30
2018-04-12T04:20:45.847Z,99435.98
2018-04-12T04:23:13.769Z,99426.07
2018-04-12T04:25:41.586Z,99419.77
2018-04-12T04:28:09.704Z,99427.87
2018-04-12T04:30:37.517Z,99424.03
2018-04-12T04:33:05.323Z,99422.27
2018-04-12T04:35:35.091Z,99419.27
2018-04-12T04:38:02.926Z,99419.16
2018-04-12T04:40:30.706Z,99416.10
2018-04-12T04:42:58.628Z,99415.08
2018-04-12T04:45:26.378Z,99410.20
2018-04-12T04:47:54.027Z,99407.67
2018-04-12T04:50:21.734Z,99408.72
2018-04-12T04:52:49.465Z,99403.34
2018-04-12T04:55:17.421Z,99403.87
2018-04-12T04:57:45.246Z,99403.52
2018-04-12T05:00:13.063Z,99399.66
2018-04-12T05:02:40.874Z,99399.28
2018-04-12T05:05:08.588Z,99394.97
2018-04-12T05:07:36.224Z,99390.79
2018-04-12T05:10:03.832Z,99395.81
2018-04-12T05:12:31.582Z,99386.84
2018-04-12T05:14:59.292Z,99386.58
2018-04-12T05:17:26.991Z,99388.64
2018-04-12T05:19:54.680Z,99387.27
2018-04-12T05:22:22.503Z,99387.35
2018-04-12T05:24:50.139Z,99388.52
2018-04-12T05:27:17.825Z,99384.06
2018-04-12T05:29:45.623Z,99386.18
2018-04-12T05:32:13.290Z,99385.38
2018-04-12T05:34:40.965Z,99392.91
2018-04-12T05:37:14.457Z,99385.33
2018-04-12T05:39:42.088Z,99387.83
2018-04-12T05:47:51.779Z,99384.31
2018-04-12T05:50:19.443Z,99379.30
2018-04-12T05:52:47.120Z,99388.81
2018-04-12T05:55:14.769Z,99380.34
2018-04-12T05:57:42.426Z,99386.47
2018-04-12T06:00:10.132Z,99387.06
2018-04-12T06:02:37.921Z,99383.50
2018-04-12T06:05:05.623Z,99382.78
2018-04-12T06:07:33.374Z,99370.14
2018-04-12T06:10:01.077Z,99370.99
2018-04-12T06:12:28.782Z,99368.83
2018-04-12T06:14:56.505Z,99365.25
2018-04-12T06:17:24.236Z,99356.09
2018-04-12T06:19:51.978Z,99351.78
2018-04-12T06:22:19.645Z,99351.22
2018-04-12T06:24:47.320Z,99351.22
2018-04-12T06:27:14.915Z,99341.91
2018-04-12T06:29:42.569Z,99337.53
2018-04-12T06:32:10.310Z,99340.21
2018-04-12T06:34:37.962Z,99351.81
2018-04-12T06:37:05.636Z,99349.86
2018-04-12T06:39:33.263Z,99351.38
2018-04-12T06:42:00.982Z,99365.95
2018-04-12T06:44:28.844Z,99360.22
2018-04-12T06:46:56.531Z,99358.72
2018-04-12T06:49:24.248Z,99367.03
2018-04-12T06:51:51.886Z,99375.72
2018-04-12T06:54:19.497Z,99383.26
2018-04-12T06:56:47.156Z,99381.16
2018-04-12T06:59:14.862Z,99377.78
2018-04-12T07:01:42.522Z,99371.99
2018-04-12T07:04:10.167Z,99370.95
2018-04-12T07:06:37.817Z,99369.53
2018-04-12T07:09:06.206Z,99367.92
2018-04-12T07:11:33.873Z,99376.45
2018-04-12T07:14:01.482Z,99382.70
2018-04-12T07:16:29.160Z,99382.35
2018-04-12T07:18:56.838Z,99381.06
2018-04-12T07:21:25.322Z,99377.98
2018-04-12T07:23:53.052Z,99375.17
2018-04-12T07:26:21.970Z,99378.97
2018-04-12T07:28:49.823Z,99385.07
2018-04-12T07:31:17.552Z,99369.61
2018-04-12T07:33:45.241Z,99355.97
2018-04-12T07:36:12.881Z,99345.24
2018-04-12T07:38:40.688Z,99358.95
2018-04-12T07:41:08.899Z,99362.98
2018-04-12T07:43:36.863Z,99356.88
2018-04-12T07:46:04.426Z,99349.83
2018-04-12T07:48:32.071Z,99355.11
2018-04-12T07:50:59.693Z,99361.03
2018-04-12T07:53:27.358Z,99363.78
2018-04-12T07:55:54.996Z,99354.39
2018-04-12T07:58:22.676Z,99356.97
2018-04-12T08:00:50.281Z,99360.67
2018-04-12T08:03:17.956Z,99357.28
2018-04-12T08:05:45.596Z,99345.66
2018-04-12T08:08:13.253Z,99338.95
2018-04-12T08:10:40.849Z,99336.70
2018-04-12T08:13:08.505Z,99333.70
2018-04-12T08:15:36.133Z,99336.43
2018-04-12T08:18:03.743Z,99348.45
2018-04-12T08:20:31.415Z,99355.11
2018-04-12T08:22:59.068Z,99357.48
2018-04-12T08:25:26.704Z,99351.66
2018-04-12T08:27:54.365Z,99348.41
2018-04-12T08:30:22.099Z,99343.34
2018-04-12T08:32:49.686Z,99344.53
2018-04-12T08:35:17.366Z,99344.11
2018-04-12T08:37:45.024Z,99334.23
2018-04-12T08:40:12.713Z,99330.44
2018-04-12T08:42:40.443Z,99333.62
2018-04-12T08:45:08.150Z,99326.27
2018-04-12T08:47:35.793Z,99321.55
2018-04-12T08:50:03.563Z,99320.49
2018-04-12T08:52:31.235Z,99312.87
2018-04-12T08:54:58.873Z,99301.77
2018-04-12T08:57:26.595Z,99298.35
2018-04-12T08:59:54.338Z,99296.14
2018-04-12T09:02:22.022Z,99290.25
2018-04-12T09:04:49.681Z,99289.73
2018-04-12T09:07:17.408Z,99286.44
2018-04-12T09:09:45.078Z,99290.74
2018-04-12T09:12:12.753Z,99278.56
2018-04-12T09:14:40.454Z,99280.30
2018-04-12T09:17:08.261Z,99259.59
2018-04-12T09:19:35.905Z,99248.91
2018-04-12T09:22:03.588Z,99252.77
2018-04-12T09:24:31.209Z,99249.03
2018-04-12T09:26:58.856Z,99249.70
2018-04-12T09:29:26.501Z,99257.05
2018-04-12T09:31:54.140Z,99255.73
2018-04-12T09:34:21.747Z,99260.36
2018-04-12T09:36:50.145Z,99249.42
2018-04-12T09:39:17.810Z,99259.03
2018-04-12T09:41:45.439Z,99259.27
2018-04-12T09:44:13.074Z,99250.84
2018-04-12T09:46:40.693Z,99252.05
2018-04-12T09:49:08.450Z,99250.91
2018-04-12T09:51:36.003Z,99253.17
2018-04-12T09:54:03.630Z,99251.58
2018-04-12T09:56:31.221Z,99259.06
2018-04-12T09:58:58.881Z,99265.67
2018-04-12T10:01:26.475Z,99263.14
2018-04-12T10:03:55.852Z,99248.76
2018-04-12T10:06:23.485Z,99240.84
2018-04-12T10:08:56.510Z,99239.61
2018-04-12T10:11:24.124Z,99242.62
2018-04-12T10:13:51.765Z,99246.23
2018-04-12T10:16:19.366Z,99252.81
2018-04-12T10:18:47.011Z,99254.11
2018-04-12T10:21:14.661Z,99269.37
2018-04-12T10:23:42.293Z,99266.84
2018-04-12T10:26:10.124Z,99277.36
2018-04-12T10:28:37.773Z,99273.06
2018-04-12T10:31:05.424Z,99270.95
2018-04-12T10:33:33.020Z,99272.86
2018-04-12T10:36:00.708Z,99271.14
2018-04-12T10:38:28.349Z,99269.00
2018-04-12T10:40:55.996Z,99275.27
2018-04-12T10:43:23.658Z,99274.69
2018-04-12T10:45:51.313Z,99279.48
2018-04-12T10:48:18.905Z,99285.56
2018-04-12T10:50:46.689Z,99280.31
2018-04-12T10:53:14.341Z,99286.22
2018-04-12T10:55:41.949Z,99286.87
2018-04-12T10:58:09.590Z,99285.45
2018-04-12T11:00:37.225Z,99290.66
2018-04-12T11:03:04.871Z,99291.64
2018-04-12T11:05:32.469Z,99296.69
2018-04-12T11:08:00.157Z,99301.59
2018-04-12T11:10:27.785Z,99305.03
2018-04-12T11:12:55.478Z,99307.48
2018-04-12T11:15:23.123Z,99311.48
2018-04-12T11:17:50.801Z,99302.55
2018-04-12T11:20:18.426Z,99300.30
2018-04-12T11:22:46.105Z,99288.37
2018-04-12T11:25:13.722Z,99292.73
2018-04-12T11:27:41.324Z,99290.09
2018-04-12T11:30:08.965Z,99299.81
2018-04-12T11:32:36.581Z,99301.33
2018-04-12T11:35:04.249Z,99297.06
2018-04-12T11:37:31.857Z,99295.59
2018-04-12T11:39:59.523Z,99291.53
2018-04-12T11:42:27.141Z,99290.61
2018-04-12T11:44:54.801Z,99283.01
2018-04-12T11:47:22.445Z,99284.72
2018-04-12T11:49:50.119Z,99280.05
2018-04-12T11:52:17.764Z,99279.88
2018-04-12T11:54:45.421Z,99279.11
2018-04-12T11:57:13.041Z,99271.77
2018-04-12T11:59:40.756Z,99266.92
2018-04-12T12:02:08.423Z,99271.48
2018-04-12T12:04:36.159Z,99265.77
2018-04-12T12:07:03.781Z,99263.67
2018-04-12T12:09:31.425Z,99258.31
2018-04-12T12:11:59.066Z,99259.33
2018-04-12T12:14:26.742Z,99266.91
2018-04-12T12:16:54.379Z,99267.91
2018-04-12T12:19:22.000Z,99270.72
2018-04-12T12:21:49.663Z,99267.80
2018-04-12T12:24:17.325Z,99261.69
2018-04-12T12:26:44.972Z,99258.81
2018-04-12T12:29:12.576Z,99265.77
2018-04-12T12:31:40.290Z,99270.41
2018-04-12T12:34:07.901Z,99265.23
2018-04-12T12:36:35.532Z,99261.70
2018-04-12T12:39:03.162Z,99261.37
2018-04-12T12:41:30.776Z,99260.95
2018-04-12T12:43:58.410Z,99262.03
2018-04-12T12:46:26.000Z,99254.54
2018-04-12T12:48:53.624Z,99254.45
2018-04-12T12:51:21.234Z,99247.36
2018-04-12T12:53:48.854Z,99245.06
2018-04-12T12:56:16.438Z,99237.05
2018-04-12T12:58:44.113Z,99232.16
2018-04-12T13:01:11.710Z,99241.83
2018-04-12T13:03:39.353Z,99246.14
2018-04-12T13:06:06.961Z,99231.36
2018-04-12T13:08:34.626Z,99235.03
2018-04-12T13:11:02.250Z,99230.41
2018-04-12T13:13:29.857Z,99228.03
2018-04-12T13:15:57.528Z,99228.25
2018-04-12T13:18:25.141Z,99225.38
2018-04-12T13:20:52.798Z,99223.62
2018-04-12T13:23:20.401Z,99217.41
2018-04-12T13:25:48.053Z,99224.92
2018-04-12T13:28:15.661Z,99225.69
2018-04-12T13:30:43.294Z,99235.58
2018-04-12T13:33:10.945Z,99244.28
2018-04-12T13:35:38.545Z,99245.28
2018-04-12T13:38:06.159Z,99257.77
2018-04-12T13:40:33.809Z,99266.17
2018-04-12T13:43:01.421Z,99274.34
2018-04-12T13:45:29.085Z,99261.00
2018-04-12T13:47:56.675Z,99264.28
2018-04-12T13:50:24.315Z,99250.81
2018-04-12T13:52:51.966Z,99243.05
2018-04-12T13:55:19.568Z,99247.08
2018-04-12T13:57:47.199Z,99242.23
2018-04-12T14:00:14.835Z,99251.89
2018-04-12T14:02:42.481Z,99240.73
2018-04-12T14:05:10.110Z,99235.70
2018-04-12T14:07:37.758Z,99234.19
2018-04-12T14:10:05.362Z,99247.05
2018-04-12T14:12:33.002Z,99246.68
2018-04-12T14:15:00.626Z,99245.87
2018-04-12T14:17:28.280Z,99255.95
2018-04-12T14:19:55.903Z,99263.91
2018-04-12T14:22:23.566Z,99253.69
2018-04-12T14:24:51.250Z,99250.39
2018-04-12T14:27:18.883Z,99247.64
2018-04-12T14:29:46.518Z,99245.75
2018-04-12T14:32:14.207Z,99244.97
2018-04-12T14:34:41.837Z,99245.16
2018-04-12T14:37:09.514Z,99241.05
2018-04-12T14:39:37.152Z,99250.02
2018-04-12T14:42:04.754Z,99246.20
2018-04-12T14:44:32.416Z,99243.19
2018-04-12T14:47:00.041Z,99239.29
2018-04-12T14:49:27.683Z,99244.66
2018-04-12T14:51:55.297Z,99247.33
2018-04-12T14:54:22.997Z,99243.67
2018-04-12T14:56:50.616Z,99241.22
2018-04-12T14:59:18.264Z,99251.03
2018-04-12T15:01:45.875Z,99259.37
2018-04-12T15:04:13.525Z,99264.17
2018-04-12T15:06:41.189Z,99272.88
2018-04-12T15:09:08.821Z,99270.62
2018-04-12T15:11:36.428Z,99265.72
2018-04-12T15:14:04.083Z,99268.38
2018-04-12T15:16:31.684Z,99264.89
2018-04-12T15:18:59.344Z,99270.27
2018-04-12T15:21:27.037Z,99265.23
2018-04-12T15:23:54.666Z,99259.80
2018-04-12T15:26:22.317Z,99264.44
2018-04-12T15:28:49.925Z,99263.58
2018-04-12T15:31:17.568Z,99257.20
2018-04-12T15:33:45.189Z,99253.30
2018-04-12T15:36:12.821Z,99253.13
2018-04-12T15:38:40.500Z,99241.61
2018-04-12T15:41:08.177Z,99239.95
2018-04-12T15:43:35.784Z,99244.59
2018-04-12T15:46:03.393Z,99251.61
2018-04-12T15:48:31.093Z,99255.98
2018-04-12T15:50:58.720Z,99260.25
2018-04-12T15:53:26.394Z,99254.19
2018-04-12T15:55:54.068Z,99251.90
2018-04-12T15:58:21.727Z,99256.83
2018-04-12T16:00:49.340Z,99260.03
2018-04-12T16:03:16.976Z,99257.30
2018-04-12T16:05:44.606Z,99259.91
2018-04-12T16:08:12.240Z,99261.81
2018-04-12T16:10:39.856Z,99263.30
2018-04-12T16:13:07.519Z,99261.09
2018-04-12T16:15:35.130Z,99265.54
2018-04-12T16:18:02.798Z,99267.41
2018-04-12T16:20:30.414Z,99269.87
2018-04-12T16:22:58.056Z,99272.56
2018-04-12T16:25:25.691Z,99269.93
2018-04-12T16:27:53.343Z,99278.55
2018-04-12T16:30:20.967Z,99281.98
2018-04-12T16:32:48.597Z,99281.08
2018-04-12T16:35:16.272Z,99273.90
2018-04-12T16:37:43.901Z,99275.20
2018-04-12T16:40:11.541Z,99273.39
2018-04-12T16:42:39.133Z,99270.45
2018-04-12T16:45:06.829Z,99269.74
2018-04-12T16:47:34.446Z,99281.45
2018-04-12T16:50:02.094Z,99285.67
2018-04-12T16:52:29.692Z,99292.00
2018-04-12T16:54:57.321Z,99290.56
2018-04-12T16:57:24.936Z,99301.55
2018-04-12T16:59:52.607Z,99302.31
2018-04-12T17:02:20.215Z,99301.42
2018-04-12T17:04:47.904Z,99296.93
2018-04-12T17:07:15.729Z,99303.97
2018-04-12T17:09:43.372Z,99302.85
2018-04-12T17:12:11.881Z,99304.31
2018-04-12T17:14:39.481Z,99312.75
2018-04-12T17:17:07.207Z,99314.72
2018-04-12T17:19:34.966Z,99319.03
2018-04-12T17:22:02.636Z,99322.83
2018-04-12T17:24:30.342Z,99328.14
2018-04-12T17:26:58.127Z,99327.91
2018-04-12T17:29:25.900Z,99331.30
2018-04-12T17:31:53.606Z,99344.25
2018-04-12T17:34:21.331Z,99338.77
2018-04-12T17:36:49.063Z,99338.08
2018-04-12T17:39:16.795Z,99336.62
2018-04-12T17:41:44.534Z,99343.55
2018-04-12T17:44:12.228Z,99340.33
2018-04-12T17:46:39.923Z,99351.45
2018-04-12T17:49:07.593Z,99354.52
2018-04-12T17:51:35.218Z,99353.51
2018-04-12T17:54:02.875Z,99355.23
2018-04-12T17:56:30.624Z,99362.13
2018-04-12T17:58:58.279Z,99364.27
2018-04-12T18:01:25.927Z,99367.52
2018-04-12T18:03:53.627Z,99378.99
2018-04-12T18:06:21.271Z,99372.63
2018-04-12T18:08:48.980Z,99380.80
2018-04-12T18:11:16.672Z,99385.17
2018-04-12T18:13:44.441Z,99385.88
2018-04-12T18:16:12.101Z,99380.82
2018-04-12T18:18:39.805Z,99388.68
2018-04-12T18:21:07.827Z,99387.67
2018-04-12T18:23:35.706Z,99389.61
2018-04-12T18:26:03.471Z,99405.60
2018-04-12T18:28:31.348Z,99409.73
2018-04-12T18:30:59.414Z,99409.02
2018-04-12T18:33:28.621Z,99415.92
2018-04-12T18:35:56.460Z,99422.71
2018-04-12T18:38:24.204Z,99418.59
2018-04-12T18:40:52.333Z,99419.00
2018-04-12T18:43:20.299Z,99421.45
2018-04-12T18:45:48.565Z,99419.23
2018-04-12T18:48:21.072Z,99418.59
2018-04-12T18:50:48.798Z,99428.31
2018-04-12T18:53:17.039Z,99433.08
2018-04-12T18:55:53.045Z,99436.56
2018-04-12T18:58:22.865Z,99440.09
2018-04-12T19:00:50.733Z,99436.66
2018-04-12T19:03:24.628Z,99442.31
2018-04-12T19:06:01.937Z,99441.42
2018-04-12T19:11:14.081Z,99451.04
2018-04-12T19:13:52.180Z,99458.50
2018-04-12T19:19:09.885Z,99467.25
2018-04-12T19:21:39.185Z,99473.94
2018-04-12T19:24:16.346Z,99471.04
2018-04-12T19:26:52.433Z,99476.84
2018-04-12T19:29:29.128Z,99483.76
2018-04-12T19:34:37.535Z,99482.09
2018-04-12T19:37:10.874Z,99489.38
2018-04-12T19:39:41.713Z,99491.31
2018-04-12T19:42:15.108Z,99492.02
2018-04-12T19:44:44.717Z,99494.47
2018-04-12T19:47:14.689Z,99497.80
2018-04-12T19:49:46.185Z,99500.88
2018-04-12T19:52:18.682Z,99500.64
2018-04-12T19:54:48.549Z,99500.61
2018-04-12T19:57:16.584Z,99500.00
2018-04-12T19:59:44.438Z,99502.55
2018-04-12T20:02:12.903Z,99508.56
2018-04-12T20:04:40.883Z,99508.06
2018-04-12T20:07:11.094Z,99511.72
2018-04-12T20:09:39.752Z,99512.26
2018-04-12T20:12:12.842Z,99507.63
2018-04-12T20:14:42.516Z,99509.38
2018-04-12T20:17:13.419Z,99513.37
2018-04-12T20:19:44.866Z,99507.11
2018-04-12T20:22:12.779Z,99508.50
2018-04-12T20:24:43.050Z,99502.85
2018-04-12T20:27:16.045Z,99508.37
2018-04-12T20:29:49.746Z,99512.39
2018-04-12T20:32:17.672Z,99512.70
2018-04-12T20:34:46.056Z,99514.39
2018-04-12T20:37:17.080Z,99514.52
2018-04-12T20:39:46.756Z,99513.50
2018-04-12T20:42:14.527Z,99514.13
2018-04-12T20:44:42.175Z,99512.80
2018-04-12T20:47:09.770Z,99507.08
2018-04-12T20:49:37.443Z,99512.90
2018-04-12T20:52:05.058Z,99506.54
2018-04-12T20:54:32.715Z,99506.91
2018-04-12T20:57:00.307Z,99513.09
2018-04-12T20:59:27.947Z,99509.95
2018-04-12T21:01:55.605Z,99511.57
2018-04-12T21:04:23.233Z,99517.08
2018-04-12T21:06:50.893Z,99522.05
2018-04-12T21:09:18.531Z,99518.57
2018-04-12T21:11:46.244Z,99519.54
2018-04-12T21:14:13.860Z,99519.96
2018-04-12T21:16:41.525Z,99515.81
2018-04-12T21:19:09.139Z,99512.44
2018-04-12T21:21:36.784Z,99511.09
2018-04-12T21:24:04.434Z,99510.65
2018-04-12T21:26:32.085Z,99514.31
2018-04-12T21:28:59.728Z,99509.82
2018-04-12T21:31:27.457Z,99511.83
2018-04-12T21:33:55.122Z,99518.52
2018-04-12T21:36:22.822Z,99513.36
2018-04-12T21:38:50.537Z,99517.80
2018-04-12T21:41:18.312Z,99520.92
2018-04-12T21:43:45.951Z,99525.92
2018-04-12T21:46:13.662Z,99530.35
2018-04-12T21:48:41.309Z,99533.55
2018-04-12T21:51:09.066Z,99532.36
2018-04-12T21:53:36.790Z,99539.77
2018-04-12T21:56:04.437Z,99544.02
2018-04-12T21:58:32.200Z,99546.26
2018-04-12T22:00:59.974Z,99550.92
2018-04-12T22:03:27.658Z,99551.58
2018-04-12T22:05:55.334Z,99555.78
2018-04-12T22:08:23.044Z,99562.61
2018-04-12T22:10:50.946Z,99558.80
2018-04-12T22:13:18.661Z,99559.37
2018-04-12T22:15:46.439Z,99565.09
2018-04-12T22:18:14.128Z,99567.33
2018-04-12T22:20:41.850Z,99574.53
2018-04-12T22:23:09.736Z,99576.45
2018-04-12T22:25:37.485Z,99578.83
2018-04-12T22:28:05.138Z,99578.98
2018-04-12T22:30:32.781Z,99579.69
2018-04-12T22:33:00.434Z,99586.53
2018-04-12T22:35:28.090Z,99585.95
2018-04-12T22:37:55.735Z,99586.66
2018-04-12T22:40:23.486Z,99590.00
2018-04-12T22:42:51.136Z,99585.71
2018-04-12T22:45:18.825Z,99588.79
2018-04-12T22:47:46.438Z,99587.83
2018-04-12T22:50:14.040Z,99591.44
2018-04-12T22:52:41.741Z,99584.86
2018-04-12T22:55:09.461Z,99581.97
2018-04-12T22:57:37.137Z,99585.05
2018-04-12T23:00:04.786Z,99586.80
2018-04-12T23:02:32.441Z,99591.77
2018-04-12T23:05:00.218Z,99590.81
2018-04-12T23:07:28.100Z,99592.25
2018-04-12T23:09:55.704Z,99598.03
2018-04-12T23:12:23.337Z,99599.69
2018-04-12T23:14:51.018Z,99596.00
2018-04-12T23:17:18.664Z,99597.84
2018-04-12T23:19:46.298Z,99602.03
2018-04-12T23:22:14.053Z,99594.94
2018-04-12T23:24:41.670Z,99600.11
2018-04-12T23:27:09.400Z,99597.79
2018-04-12T23:29:37.047Z,99602.42
2018-04-12T23:32:04.780Z,99605.70
2018-04-12T23:34:32.432Z,99602.13
2018-04-12T23:37:00.256Z,99601.73
2018-04-12T23:39:27.996Z,99596.28
2018-04-12T23:41:55.596Z,99597.09
2018-04-12T23:44:23.252Z,99599.52
2018-04-12T23:46:50.879Z,99595.48
2018-04-12T23:49:18.520Z,99605.49
2018-04-12T23:51:46.175Z,99609.75
2018-04-12T23:54:13.862Z,99615.28
2018-04-12T23:56:41.616Z,99615.33
2018-04-12T23:59:09.315Z,99618.70
